Time;durP1;ratioP1;P1;durP2;ratioP2;P2;SDS_P1;SDS_P2;PMS_P1;PMS_P2;Temp;Humidity;BMP_temperature;BMP_pressure;BME280_temperature;BME280_humidity;BME280_pressure;Samples;Min_cycle;Max_cycle;Signal;HPM_P1;HPM_P2
2024/01/15 00:02:08;;;;;;;0.40;0.40;;;1.90;88.00;;;;;;10457943;28;20233;-80
2024/01/15 00:07:11;;;;;;;0.30;0.30;;;1.90;88.80;;;;;;10444217;28;20213;-81
2024/01/15 00:12:14;;;;;;;0.40;0.40;;;2.00;88.60;;;;;;10481468;28;20229;-82
2024/01/15 00:17:17;;;;;;;0.30;0.30;;;2.10;88.40;;;;;;10516731;28;20261;-84
2024/01/15 00:22:19;;;;;;;0.37;0.37;;;2.00;88.50;;;;;;10483834;28;20196;-81
2024/01/15 00:27:23;;;;;;;0.40;0.40;;;2.00;88.30;;;;;;10457577;28;20239;-82
2024/01/15 00:32:25;;;;;;;0.30;0.30;;;1.90;88.00;;;;;;10493822;28;20229;-82
2024/01/15 00:37:28;;;;;;;0.30;0.30;;;1.80;88.40;;;;;;10468199;28;20201;-81
2024/01/15 00:42:32;;;;;;;0.30;0.30;;;1.80;88.30;;;;;;10477692;28;20217;-81
2024/01/15 00:47:34;;;;;;;0.30;0.30;;;1.70;88.90;;;;;;10493156;28;20201;-80
2024/01/15 00:52:36;;;;;;;0.30;0.30;;;1.70;88.80;;;;;;10491150;28;20678;-81
2024/01/15 00:57:41;;;;;;;0.30;0.30;;;1.70;89.30;;;;;;10462052;28;20693;-81
2024/01/15 01:02:44;;;;;;;0.30;0.30;;;1.70;89.90;;;;;;10477759;28;20225;-82
2024/01/15 01:07:46;;;;;;;0.30;0.30;;;1.70;89.90;;;;;;10490645;28;20193;-82
2024/01/15 01:12:49;;;;;;;0.30;0.30;;;1.60;90.20;;;;;;10489023;28;20636;-81
2024/01/15 01:17:52;;;;;;;0.30;0.30;;;1.70;90.20;;;;;;10470867;28;20228;-78
2024/01/15 01:22:54;;;;;;;0.33;0.33;;;1.80;90.30;;;;;;10490789;28;20224;-81
2024/01/15 01:27:58;;;;;;;0.30;0.30;;;1.80;90.30;;;;;;10470735;28;20201;-81
2024/01/15 01:33:00;;;;;;;0.30;0.30;;;1.90;90.30;;;;;;10537127;28;20239;-82
2024/01/15 01:38:03;;;;;;;0.30;0.30;;;2.00;90.40;;;;;;10474039;28;20208;-80
2024/01/15 01:43:07;;;;;;;0.33;0.33;;;2.00;90.40;;;;;;10479079;28;20192;-83
2024/01/15 01:48:09;;;;;;;0.30;0.30;;;2.00;90.40;;;;;;10507259;28;20200;-81
2024/01/15 01:53:11;;;;;;;0.30;0.30;;;2.10;90.30;;;;;;10538752;28;20223;-79
2024/01/15 01:58:16;;;;;;;0.30;0.30;;;2.10;90.30;;;;;;10473919;28;20236;-84
2024/01/15 02:03:20;;;;;;;0.20;0.20;;;2.20;90.50;;;;;;10462428;28;20270;-82
2024/01/15 02:08:23;;;;;;;0.30;0.30;;;2.20;90.50;;;;;;10492451;28;20240;-81
2024/01/15 02:13:27;;;;;;;0.30;0.30;;;2.20;90.50;;;;;;10486595;28;20725;-81
2024/01/15 02:18:29;;;;;;;0.30;0.30;;;2.20;90.50;;;;;;10487853;28;20254;-82
2024/01/15 02:23:33;;;;;;;0.20;0.20;;;2.20;90.50;;;;;;10500255;28;20196;-80
2024/01/15 02:28:35;;;;;;;0.20;0.20;;;2.20;90.50;;;;;;10501857;28;20682;-82
2024/01/15 02:33:37;;;;;;;0.27;0.27;;;2.20;90.60;;;;;;10469661;28;20213;-79
2024/01/15 02:38:42;;;;;;;0.30;0.30;;;2.20;90.60;;;;;;10514320;28;20220;-81
2024/01/15 02:43:45;;;;;;;0.30;0.30;;;2.10;90.70;;;;;;10483289;28;20185;-79
2024/01/15 02:48:47;;;;;;;0.30;0.30;;;2.10;90.70;;;;;;10488624;28;20228;-80
2024/01/15 02:53:51;;;;;;;0.30;0.30;;;2.00;90.60;;;;;;10462129;28;20243;-82
2024/01/15 02:58:53;;;;;;;0.30;0.30;;;2.00;90.70;;;;;;10455412;28;20228;-82
2024/01/15 03:03:57;;;;;;;0.30;0.30;;;1.90;90.90;;;;;;10468998;28;20269;-81
2024/01/15 03:09:00;;;;;;;0.20;0.20;;;1.90;90.80;;;;;;10510442;28;20261;-80
2024/01/15 03:14:03;;;;;;;0.30;0.30;;;1.90;90.80;;;;;;10503866;28;20204;-81
2024/01/15 03:19:05;;;;;;;0.30;0.30;;;1.80;90.90;;;;;;10528595;28;20704;-79
2024/01/15 03:24:09;;;;;;;0.40;0.40;;;1.80;91.00;;;;;;10516321;28;20571;-81
2024/01/15 03:29:11;;;;;;;0.27;0.27;;;1.80;91.20;;;;;;10502232;28;20246;-81
2024/01/15 03:34:13;;;;;;;0.30;0.30;;;1.80;91.30;;;;;;10528003;28;20231;-79
2024/01/15 03:39:17;;;;;;;0.30;0.30;;;1.80;91.40;;;;;;10519442;28;20223;-82
2024/01/15 03:44:19;;;;;;;0.30;0.30;;;1.80;91.40;;;;;;10500475;28;20597;-82
2024/01/15 03:49:22;;;;;;;0.40;0.40;;;1.80;91.40;;;;;;10461937;28;20205;-79
2024/01/15 03:54:26;;;;;;;0.30;0.30;;;1.80;91.30;;;;;;10467459;28;20209;-79
2024/01/15 03:59:29;;;;;;;0.40;0.40;;;1.80;91.40;;;;;;10490790;28;20228;-81
2024/01/15 04:04:31;;;;;;;0.40;0.40;;;1.80;91.40;;;;;;10459816;28;20193;-79
2024/01/15 04:09:35;;;;;;;0.40;0.40;;;1.90;91.50;;;;;;10513302;28;20227;-81
2024/01/15 04:14:37;;;;;;;0.40;0.40;;;2.00;91.50;;;;;;10532385;28;21000;-80
2024/01/15 04:19:39;;;;;;;0.50;0.50;;;2.00;91.70;;;;;;10508009;28;20297;-80
2024/01/15 04:24:43;;;;;;;0.40;0.40;;;2.10;91.60;;;;;;10523925;28;20260;-79
2024/01/15 04:29:45;;;;;;;0.50;0.50;;;2.30;91.30;;;;;;10505913;28;20223;-81
2024/01/15 04:34:48;;;;;;;0.40;0.40;;;2.30;91.40;;;;;;10501376;28;20212;-80
2024/01/15 04:39:52;;;;;;;0.63;0.63;;;2.30;91.20;;;;;;10462515;28;20709;-80
2024/01/15 04:44:55;;;;;;;0.47;0.47;;;2.40;91.30;;;;;;10522962;28;20226;-80
2024/01/15 04:49:57;;;;;;;0.40;0.40;;;2.50;91.20;;;;;;10482978;28;20621;-80
2024/01/15 04:55:01;;;;;;;0.57;0.57;;;2.50;91.20;;;;;;10513487;28;20229;-79
2024/01/15 05:00:03;;;;;;;0.50;0.50;;;2.60;91.10;;;;;;10469072;28;20221;-80
2024/01/15 05:05:06;;;;;;;0.60;0.60;;;2.60;90.90;;;;;;10519707;28;20192;-82
2024/01/15 05:10:10;;;;;;;0.70;0.70;;;2.60;90.90;;;;;;10499064;28;20698;-82
2024/01/15 05:15:12;;;;;;;0.60;0.60;;;2.60;90.80;;;;;;10500375;28;20232;-82
2024/01/15 05:20:15;;;;;;;0.50;0.50;;;2.60;90.90;;;;;;10520766;28;20215;-81
2024/01/15 05:25:18;;;;;;;0.70;0.70;;;2.60;91.10;;;;;;10466450;28;20204;-80
2024/01/15 05:30:21;;;;;;;0.50;0.50;;;2.60;91.20;;;;;;10495921;28;20632;-82
2024/01/15 05:35:23;;;;;;;0.60;0.60;;;2.60;91.20;;;;;;10525359;28;20239;-81
2024/01/15 05:40:27;;;;;;;0.50;0.50;;;2.60;91.30;;;;;;10535876;28;20211;-81
2024/01/15 05:45:31;;;;;;;0.43;0.43;;;2.60;91.00;;;;;;10503184;28;20199;-80
2024/01/15 05:50:33;;;;;;;0.60;0.60;;;2.60;91.10;;;;;;10501266;28;20219;-82
2024/01/15 05:55:38;;;;;;;0.40;0.40;;;2.60;91.20;;;;;;10529000;28;20220;-81
2024/01/15 06:00:40;;;;;;;0.40;0.40;;;2.60;91.10;;;;;;10519597;28;20234;-81
2024/01/15 06:05:43;;;;;;;0.40;0.40;;;2.60;90.70;;;;;;10520765;28;20191;-81
2024/01/15 06:10:46;;;;;;;0.50;0.50;;;2.60;91.00;;;;;;10520304;28;20223;-82
2024/01/15 06:15:49;;;;;;;0.40;0.40;;;2.60;91.20;;;;;;10517277;28;20700;-82
2024/01/15 06:20:51;;;;;;;0.50;0.50;;;2.60;91.20;;;;;;10522256;28;20239;-83
2024/01/15 06:25:55;;;;;;;0.40;0.40;;;2.60;91.30;;;;;;10521399;28;20200;-84
2024/01/15 06:30:58;;;;;;;0.50;0.50;;;2.60;90.90;;;;;;10522927;28;20699;-82
2024/01/15 06:36:00;;;;;;;0.40;0.40;;;2.70;90.90;;;;;;10522842;28;20198;-82
2024/01/15 06:41:04;;;;;;;0.50;0.50;;;2.60;91.00;;;;;;10517816;28;20225;-82
2024/01/15 06:46:06;;;;;;;0.40;0.40;;;2.70;91.00;;;;;;10519370;28;20192;-81
2024/01/15 06:51:09;;;;;;;0.30;0.30;;;2.70;90.80;;;;;;10531391;28;20224;-81
2024/01/15 06:56:13;;;;;;;0.40;0.40;;;2.60;90.80;;;;;;10502153;28;20192;-80
2024/01/15 07:01:15;;;;;;;0.40;0.40;;;2.60;90.80;;;;;;10506164;28;20246;-80
2024/01/15 07:06:17;;;;;;;0.40;0.40;;;2.60;90.90;;;;;;10504453;28;20199;-82
2024/01/15 07:11:21;;;;;;;0.30;0.30;;;2.60;91.10;;;;;;10477469;28;20225;-82
2024/01/15 07:16:23;;;;;;;0.30;0.30;;;2.60;90.90;;;;;;10506585;28;20680;-82
2024/01/15 07:21:26;;;;;;;0.40;0.40;;;2.70;90.90;;;;;;10508571;28;20222;-82
2024/01/15 07:26:31;;;;;;;0.40;0.40;;;2.70;90.70;;;;;;10506238;28;20241;-82
2024/01/15 07:31:33;;;;;;;0.40;0.40;;;2.70;90.40;;;;;;10503207;28;20204;-80
2024/01/15 07:36:36;;;;;;;0.30;0.30;;;2.80;90.60;;;;;;10525559;28;20619;-83
2024/01/15 07:41:39;;;;;;;0.40;0.40;;;2.80;90.60;;;;;;10485617;28;20222;-83
2024/01/15 07:46:45;;;;;;;0.50;0.50;;;2.80;90.50;;;;;;10481775;28;20195;-81
2024/01/15 07:51:47;;;;;;;0.30;0.30;;;2.90;90.30;;;;;;10523586;28;20674;-81
2024/01/15 07:56:58;;;;;;;0.10;0.10;;;2.90;90.00;;;;;;10502339;28;20285;-81
2024/01/15 08:02:01;;;;;;;0.40;0.40;;;2.90;90.00;;;;;;10474924;28;20213;-82
2024/01/15 08:07:04;;;;;;;0.10;0.10;;;2.90;90.00;;;;;;10510455;28;20622;-82
2024/01/15 08:12:09;;;;;;;0.40;0.40;;;2.90;89.50;;;;;;10507070;28;20216;-81
2024/01/15 08:17:12;;;;;;;0.40;0.40;;;3.00;89.30;;;;;;10499072;28;20193;-81
2024/01/15 08:22:14;;;;;;;0.40;0.40;;;3.00;89.30;;;;;;10515816;28;20212;-81
2024/01/15 08:27:19;;;;;;;0.50;0.50;;;3.10;89.00;;;;;;10493134;28;20202;-78
2024/01/15 08:32:22;;;;;;;0.30;0.30;;;3.10;88.80;;;;;;10483749;28;20232;-80
2024/01/15 08:37:24;;;;;;;0.10;0.10;;;3.20;88.20;;;;;;10517110;28;20765;-80
2024/01/15 08:42:28;;;;;;;0.30;0.30;;;3.20;87.80;;;;;;10524813;28;20221;-79
2024/01/15 08:47:30;;;;;;;0.30;0.30;;;3.20;87.50;;;;;;10508762;28;20223;-79
2024/01/15 08:52:32;;;;;;;0.40;0.40;;;3.30;87.80;;;;;;10474751;28;20259;-82
2024/01/15 08:57:36;;;;;;;0.20;0.20;;;3.30;88.30;;;;;;10503255;28;20197;-80
2024/01/15 09:02:39;;;;;;;0.20;0.20;;;3.40;88.00;;;;;;10511909;28;20218;-80
2024/01/15 09:07:41;;;;;;;0.30;0.30;;;3.50;88.40;;;;;;10506735;28;20244;-83
2024/01/15 09:12:45;;;;;;;0.20;0.20;;;3.60;87.90;;;;;;10499012;28;20229;-81
2024/01/15 09:17:47;;;;;;;0.10;0.10;;;3.70;87.60;;;;;;10484956;28;20189;-82
2024/01/15 09:22:49;;;;;;;0.20;0.20;;;3.70;87.40;;;;;;10501269;28;20271;-82
2024/01/15 09:27:53;;;;;;;0.30;0.30;;;3.80;86.20;;;;;;10494315;28;20197;-82
2024/01/15 09:32:57;;;;;;;0.20;0.20;;;3.90;86.60;;;;;;10497675;28;20213;-82
2024/01/15 09:38:00;;;;;;;0.20;0.20;;;3.90;86.20;;;;;;10478791;28;20193;-81
2024/01/15 09:43:05;;;;;;;0.30;0.30;;;4.00;85.50;;;;;;10485172;28;20197;-79
2024/01/15 09:48:08;;;;;;;0.30;0.30;;;4.00;84.80;;;;;;10516529;28;20243;-81
2024/01/15 09:53:10;;;;;;;0.30;0.30;;;4.00;85.40;;;;;;10526083;28;20213;-79
2024/01/15 09:58:14;;;;;;;0.30;0.30;;;4.00;85.90;;;;;;10465163;28;20205;-80
2024/01/15 10:03:17;;;;;;;0.20;0.20;;;4.10;86.20;;;;;;10497038;28;20189;-79
2024/01/15 10:08:20;;;;;;;0.20;0.20;;;4.20;85.50;;;;;;10498172;28;20278;-80
2024/01/15 10:13:23;;;;;;;0.20;0.20;;;4.20;85.50;;;;;;10508502;28;20217;-80
2024/01/15 10:18:26;;;;;;;0.20;0.20;;;4.30;85.00;;;;;;10501025;28;20216;-81
2024/01/15 10:23:28;;;;;;;0.20;0.20;;;4.30;85.20;;;;;;10498710;28;20204;-80
2024/01/15 10:28:32;;;;;;;0.20;0.20;;;4.20;85.80;;;;;;10516111;28;20209;-81
2024/01/15 10:33:34;;;;;;;0.20;0.20;;;4.20;85.90;;;;;;10492406;28;20242;-82
2024/01/15 10:38:37;;;;;;;0.30;0.30;;;4.20;85.20;;;;;;10501768;28;20216;-80
2024/01/15 10:43:41;;;;;;;0.30;0.30;;;4.20;85.00;;;;;;10499803;28;20261;-82
2024/01/15 10:48:44;;;;;;;0.30;0.30;;;4.30;84.80;;;;;;10472167;28;20225;-82
2024/01/15 10:53:47;;;;;;;0.30;0.30;;;4.30;85.50;;;;;;10493030;28;20277;-80
2024/01/15 10:58:51;;;;;;;0.30;0.30;;;4.30;85.40;;;;;;10496566;28;20232;-81
2024/01/15 11:03:57;;;;;;;0.30;0.30;;;4.40;85.00;;;;;;10475757;28;20196;-80
2024/01/15 11:09:00;;;;;;;0.10;0.10;;;4.50;84.90;;;;;;10462721;28;20221;-80
2024/01/15 11:14:04;;;;;;;0.20;0.20;;;4.60;85.80;;;;;;10479958;28;20228;-79
2024/01/15 11:19:08;;;;;;;0.20;0.20;;;4.60;85.60;;;;;;10482794;28;20229;-79
2024/01/15 11:24:12;;;;;;;0.30;0.30;;;4.60;86.50;;;;;;10459157;28;20189;-79
2024/01/15 11:29:31;;;;;;;0.23;0.23;;;4.60;87.90;;;;;;10469718;28;20722;-80
2024/01/15 11:34:54;;;;;;;0.10;0.10;;;4.50;90.00;;;;;;10476519;28;20270;-80
2024/01/15 11:40:02;;;;;;;0.20;0.20;;;4.50;90.20;;;;;;10473523;28;20228;-80
2024/01/15 11:45:06;;;;;;;0.20;0.20;;;4.60;90.10;;;;;;10476654;28;20201;-79
2024/01/15 11:50:11;;;;;;;0.20;0.20;;;4.60;90.20;;;;;;10469058;28;20263;-79
2024/01/15 11:55:19;;;;;;;0.20;0.20;;;4.50;90.60;;;;;;10487751;28;20278;-79
2024/01/15 12:00:24;;;;;;;0.20;0.20;;;4.40;91.10;;;;;;10468650;28;20224;-79
2024/01/15 12:05:27;;;;;;;0.30;0.30;;;4.20;91.40;;;;;;10476637;28;20201;-78
2024/01/15 12:10:29;;;;;;;0.20;0.20;;;4.10;91.90;;;;;;10492044;28;20220;-79
2024/01/15 12:15:34;;;;;;;0.10;0.10;;;4.00;91.60;;;;;;10480144;28;20574;-78
2024/01/15 12:20:36;;;;;;;0.27;0.27;;;4.00;92.00;;;;;;10491315;28;20228;-80
2024/01/15 12:25:39;;;;;;;0.20;0.20;;;3.90;92.80;;;;;;10468423;28;20201;-79
2024/01/15 12:30:44;;;;;;;0.27;0.27;;;3.90;93.20;;;;;;10476949;28;20226;-80
2024/01/15 12:35:46;;;;;;;0.20;0.20;;;3.70;94.20;;;;;;10473021;28;20224;-80
2024/01/15 12:40:49;;;;;;;0.40;0.40;;;3.60;94.80;;;;;;10479254;28;20217;-79
2024/01/15 12:45:53;;;;;;;0.40;0.40;;;3.40;95.40;;;;;;10482508;28;20185;-80
2024/01/15 12:50:56;;;;;;;0.50;0.50;;;3.30;96.00;;;;;;10470098;28;20240;-80
2024/01/15 12:55:59;;;;;;;0.40;0.40;;;3.20;96.80;;;;;;10493790;28;20585;-79
2024/01/15 13:01:02;;;;;;;0.60;0.60;;;3.20;97.10;;;;;;10488800;28;20224;-79
2024/01/15 13:06:06;;;;;;;0.50;0.50;;;3.10;97.30;;;;;;10500242;28;20739;-80
2024/01/15 13:11:10;;;;;;;0.60;0.60;;;3.10;97.80;;;;;;10493474;28;20221;-81
2024/01/15 13:16:13;;;;;;;0.80;0.80;;;3.20;98.30;;;;;;10501373;28;20235;-80
2024/01/15 13:21:16;;;;;;;0.47;0.47;;;3.20;98.20;;;;;;10467416;28;20290;-80
2024/01/15 13:26:20;;;;;;;0.60;0.60;;;3.20;98.40;;;;;;10489204;28;20618;-81
2024/01/15 13:31:24;;;;;;;0.60;0.60;;;3.30;98.60;;;;;;10493603;28;20230;-79
2024/01/15 13:36:26;;;;;;;0.47;0.47;;;3.30;98.60;;;;;;10461833;28;20221;-80
2024/01/15 13:41:29;;;;;;;0.33;0.33;;;3.30;98.80;;;;;;10471879;28;20225;-80
2024/01/15 13:46:33;;;;;;;0.60;0.60;;;3.20;98.70;;;;;;10491597;28;20181;-80
2024/01/15 13:51:36;;;;;;;0.60;0.60;;;3.20;98.80;;;;;;10485300;28;20455;-79
2024/01/15 13:56:39;;;;;;;0.50;0.50;;;3.20;98.90;;;;;;10473022;28;20701;-80
2024/01/15 14:01:43;;;;;;;0.60;0.60;;;3.20;99.10;;;;;;10472442;28;20228;-80
2024/01/15 14:06:46;;;;;;;0.80;0.80;;;3.20;99.30;;;;;;10473928;28;20253;-79
2024/01/15 14:11:48;;;;;;;0.80;0.80;;;3.20;99.40;;;;;;10500934;28;20273;-80
2024/01/15 14:16:52;;;;;;;0.70;0.70;;;3.20;99.40;;;;;;10477440;28;20251;-78
2024/01/15 14:21:55;;;;;;;0.60;0.60;;;3.20;99.50;;;;;;10484749;28;20219;-80
2024/01/15 14:26:58;;;;;;;0.50;0.50;;;3.20;99.50;;;;;;10471648;28;20185;-79
2024/01/15 14:32:02;;;;;;;0.63;0.63;;;3.20;99.50;;;;;;10481453;28;20277;-78
2024/01/15 14:37:05;;;;;;;0.43;0.43;;;3.20;99.70;;;;;;10474418;28;20217;-80
2024/01/15 14:42:08;;;;;;;0.90;0.90;;;3.20;99.40;;;;;;10476968;28;20226;-80
2024/01/15 14:47:12;;;;;;;0.90;0.90;;;3.10;99.20;;;;;;10488027;28;20556;-80
2024/01/15 14:52:14;;;;;;;0.70;0.70;;;3.10;99.00;;;;;;10494369;28;20279;-80
2024/01/15 14:57:18;;;;;;;0.60;0.60;;;3.10;98.90;;;;;;10479638;28;20658;-80
2024/01/15 15:02:22;;;;;;;0.80;0.80;;;3.10;99.10;;;;;;10512839;28;20220;-81
2024/01/15 15:07:24;;;;;;;0.20;0.20;;;3.20;99.10;;;;;;10524415;28;20318;-81
2024/01/15 15:12:27;;;;;;;0.70;0.70;;;3.10;98.70;;;;;;10560715;28;20212;-79
2024/01/15 15:17:31;;;;;;;0.50;0.50;;;3.10;98.90;;;;;;10516091;28;20217;-80
2024/01/15 15:22:33;;;;;;;0.73;0.73;;;3.10;98.70;;;;;;10482643;28;20702;-81
2024/01/15 15:27:36;;;;;;;0.10;0.10;;;3.10;98.50;;;;;;10486481;28;20192;-79
2024/01/15 15:32:40;;;;;;;0.70;0.70;;;3.10;98.30;;;;;;10488637;28;20236;-81
2024/01/15 15:37:42;;;;;;;0.33;0.33;;;3.00;98.20;;;;;;10491952;28;20294;-79
2024/01/15 15:42:44;;;;;;;0.50;0.50;;;3.10;98.20;;;;;;10496813;28;20729;-79
2024/01/15 15:47:48;;;;;;;0.60;0.60;;;3.10;97.00;;;;;;10475486;28;20189;-80
2024/01/15 15:52:51;;;;;;;0.57;0.57;;;3.00;97.30;;;;;;10487516;28;20807;-80
2024/01/15 15:57:53;;;;;;;0.40;0.40;;;3.10;97.50;;;;;;10511037;28;20216;-80
2024/01/15 16:02:57;;;;;;;0.60;0.60;;;3.00;97.60;;;;;;10473368;28;20248;-78
2024/01/15 16:07:59;;;;;;;0.40;0.40;;;3.00;97.10;;;;;;10458389;28;20204;-79
2024/01/15 16:13:02;;;;;;;0.43;0.43;;;3.10;96.10;;;;;;10507611;28;20188;-83
2024/01/15 16:18:06;;;;;;;0.40;0.40;;;3.00;96.40;;;;;;10485285;28;20220;-79
2024/01/15 16:23:08;;;;;;;0.47;0.47;;;3.00;96.50;;;;;;10504633;28;20188;-79
2024/01/15 16:28:11;;;;;;;0.10;0.10;;;3.10;96.60;;;;;;10527551;28;20514;-80
2024/01/15 16:33:14;;;;;;;0.50;0.50;;;3.10;96.00;;;;;;10486230;28;20204;-80
2024/01/15 16:38:17;;;;;;;0.50;0.50;;;3.10;95.50;;;;;;10482714;28;20654;-79
2024/01/15 16:43:20;;;;;;;0.40;0.40;;;3.10;95.50;;;;;;10490482;28;20212;-83
2024/01/15 16:48:23;;;;;;;0.20;0.20;;;3.10;95.90;;;;;;10492481;28;20205;-81
2024/01/15 16:53:26;;;;;;;0.30;0.30;;;3.00;95.70;;;;;;10498926;28;20266;-79
2024/01/15 16:58:28;;;;;;;0.50;0.50;;;3.00;95.30;;;;;;10517582;28;20237;-79
2024/01/15 17:03:32;;;;;;;0.20;0.20;;;3.00;95.50;;;;;;10538923;22;20703;-80
2024/01/15 17:08:34;;;;;;;0.50;0.50;;;3.00;95.50;;;;;;10577899;28;20199;-82
2024/01/15 17:13:37;;;;;;;0.40;0.40;;;3.00;95.30;;;;;;10598936;27;20226;-78
2024/01/15 17:18:40;;;;;;;0.10;0.10;;;3.10;95.30;;;;;;10581920;27;20225;-78
2024/01/15 17:23:43;;;;;;;0.40;0.40;;;3.10;95.10;;;;;;10591992;27;20230;-78
2024/01/15 17:28:45;;;;;;;0.40;0.40;;;3.10;94.80;;;;;;10582644;27;20199;-78
2024/01/15 17:33:49;;;;;;;0.13;0.13;;;3.10;94.90;;;;;;10579327;28;20211;-77
2024/01/15 17:38:51;;;;;;;0.10;0.10;;;3.10;95.00;;;;;;10577254;28;20210;-79
2024/01/15 17:43:54;;;;;;;0.10;0.10;;;3.10;94.60;;;;;;10580933;28;20651;-79
2024/01/15 17:49:02;;;;;;;0.37;0.37;;;3.00;94.60;;;;;;10591095;28;20195;-80
2024/01/15 17:54:08;;;;;;;0.30;0.30;;;3.00;94.60;;;;;;10592877;28;20215;-81
2024/01/15 17:59:11;;;;;;;0.40;0.40;;;3.00;94.60;;;;;;10586570;28;20199;-82
2024/01/15 18:04:16;;;;;;;0.20;0.20;;;3.00;94.60;;;;;;10588872;28;20268;-81
2024/01/15 18:09:19;;;;;;;0.50;0.50;;;3.00;94.80;;;;;;10586083;28;20195;-79
2024/01/15 18:14:21;;;;;;;0.60;0.60;;;3.00;94.50;;;;;;10586798;28;20268;-81
2024/01/15 18:19:25;;;;;;;0.30;0.30;;;2.90;94.10;;;;;;10586744;28;20229;-81
2024/01/15 18:24:27;;;;;;;0.40;0.40;;;2.80;94.30;;;;;;10589912;27;20667;-80
2024/01/15 18:29:30;;;;;;;0.60;0.60;;;2.70;93.90;;;;;;10604894;27;20190;-80
2024/01/15 18:34:33;;;;;;;0.50;0.50;;;2.60;94.10;;;;;;10600866;27;20219;-80
2024/01/15 18:39:36;;;;;;;0.60;0.60;;;2.60;94.00;;;;;;10590928;28;20224;-80
2024/01/15 18:44:38;;;;;;;0.40;0.40;;;2.60;94.20;;;;;;10589940;28;20219;-81
2024/01/15 18:49:43;;;;;;;0.60;0.60;;;2.50;94.00;;;;;;10590000;28;20199;-82
2024/01/15 18:54:46;;;;;;;0.43;0.43;;;2.50;93.80;;;;;;10593396;27;20244;-81
2024/01/15 18:59:48;;;;;;;0.50;0.50;;;2.50;94.10;;;;;;10595150;27;20207;-80
2024/01/15 19:04:52;;;;;;;0.40;0.40;;;2.60;93.80;;;;;;10587731;28;20246;-79
2024/01/15 19:09:54;;;;;;;0.40;0.40;;;2.60;93.80;;;;;;10587535;28;20198;-80
2024/01/15 19:14:57;;;;;;;0.40;0.40;;;2.60;93.50;;;;;;10587073;28;20214;-80
2024/01/15 19:20:01;;;;;;;0.40;0.40;;;2.60;93.60;;;;;;10589536;28;20187;-79
2024/01/15 19:25:03;;;;;;;0.40;0.40;;;2.60;93.20;;;;;;10580160;28;20628;-79
2024/01/15 19:30:08;;;;;;;0.40;0.40;;;2.60;92.60;;;;;;10572831;28;20598;-80
2024/01/15 19:35:12;;;;;;;0.50;0.50;;;2.60;92.40;;;;;;10583281;27;20260;-79
2024/01/15 19:40:14;;;;;;;0.10;0.10;;;2.60;92.70;;;;;;10576084;28;20195;-79
2024/01/15 19:45:17;;;;;;;0.40;0.40;;;2.70;92.60;;;;;;10577700;28;20353;-81
2024/01/15 19:50:20;;;;;;;0.47;0.47;;;2.70;92.30;;;;;;10577772;28;20252;-80
2024/01/15 19:55:23;;;;;;;0.40;0.40;;;2.70;92.40;;;;;;10564852;28;20731;-78
2024/01/15 20:00:25;;;;;;;0.40;0.40;;;2.70;92.50;;;;;;10557306;28;21020;-78
2024/01/15 20:05:30;;;;;;;0.60;0.60;;;2.70;92.50;;;;;;10562381;28;20211;-78
2024/01/15 20:10:33;;;;;;;0.40;0.40;;;2.80;92.20;;;;;;10560826;28;20188;-78
2024/01/15 20:15:38;;;;;;;0.50;0.50;;;2.70;92.00;;;;;;10560310;28;20279;-81
2024/01/15 20:20:41;;;;;;;0.40;0.40;;;2.70;92.20;;;;;;10580353;28;20198;-79
2024/01/15 20:25:44;;;;;;;0.40;0.40;;;2.70;92.10;;;;;;10578888;28;20215;-77
2024/01/15 20:30:46;;;;;;;0.40;0.40;;;2.70;91.90;;;;;;10567102;28;20716;-80
2024/01/15 20:35:50;;;;;;;0.60;0.60;;;2.70;92.20;;;;;;10557868;28;20231;-79
2024/01/15 20:40:52;;;;;;;0.30;0.30;;;2.60;92.10;;;;;;10569129;28;20565;-80
2024/01/15 20:45:58;;;;;;;0.50;0.50;;;2.70;91.60;;;;;;10578744;28;20270;-81
2024/01/15 20:51:02;;;;;;;0.30;0.30;;;2.70;91.90;;;;;;10572681;28;20196;-81
2024/01/15 20:56:05;;;;;;;0.40;0.40;;;2.70;92.10;;;;;;10560718;28;20261;-81
2024/01/15 21:01:08;;;;;;;0.40;0.40;;;2.70;91.90;;;;;;10561007;28;20273;-82
2024/01/15 21:06:12;;;;;;;0.40;0.40;;;2.70;91.30;;;;;;10575428;27;20215;-84
2024/01/15 21:11:17;;;;;;;0.40;0.40;;;2.70;91.60;;;;;;10572932;27;20199;-80
2024/01/15 21:16:19;;;;;;;0.40;0.40;;;2.80;91.50;;;;;;10561255;28;20218;-83
2024/01/15 21:21:23;;;;;;;0.40;0.40;;;2.70;91.20;;;;;;10577023;28;20705;-83
2024/01/15 21:26:25;;;;;;;0.40;0.40;;;2.70;90.90;;;;;;10558553;28;20194;-81
2024/01/15 21:31:28;;;;;;;0.20;0.20;;;2.60;91.10;;;;;;10550551;28;20700;-82
2024/01/15 21:36:31;;;;;;;0.40;0.40;;;2.60;90.50;;;;;;10570182;28;20269;-79
2024/01/15 21:41:34;;;;;;;0.30;0.30;;;2.60;91.00;;;;;;10568806;27;20228;-81
2024/01/15 21:46:36;;;;;;;0.30;0.30;;;2.60;91.50;;;;;;10588049;27;20195;-82
2024/01/15 21:51:40;;;;;;;0.30;0.30;;;2.60;91.20;;;;;;10589988;28;20643;-79
2024/01/15 21:56:42;;;;;;;0.30;0.30;;;2.50;91.10;;;;;;10592784;28;20260;-78
2024/01/15 22:01:51;;;;;;;0.17;0.17;;;2.50;91.00;;;;;;10583765;28;20230;-79
2024/01/15 22:06:54;;;;;;;0.30;0.30;;;2.50;91.10;;;;;;10584346;28;20203;-78
2024/01/15 22:11:57;;;;;;;0.30;0.30;;;2.60;90.90;;;;;;10582974;28;20223;-80
2024/01/15 22:16:59;;;;;;;0.30;0.30;;;2.60;90.90;;;;;;10566672;28;20212;-78
2024/01/15 22:22:03;;;;;;;0.30;0.30;;;2.60;91.20;;;;;;10575814;28;20717;-79
2024/01/15 22:27:06;;;;;;;0.40;0.40;;;2.60;90.90;;;;;;10571388;28;20614;-81
2024/01/15 22:32:08;;;;;;;0.40;0.40;;;2.60;90.90;;;;;;10563804;28;20219;-79
2024/01/15 22:37:13;;;;;;;0.33;0.33;;;2.60;91.00;;;;;;10559656;28;20216;-80
2024/01/15 22:42:16;;;;;;;0.30;0.30;;;2.60;90.80;;;;;;10559616;28;20446;-79
2024/01/15 22:47:18;;;;;;;0.40;0.40;;;2.60;90.90;;;;;;10559394;28;20757;-80
2024/01/15 22:52:22;;;;;;;0.40;0.40;;;2.70;90.50;;;;;;10572354;28;20223;-81
2024/01/15 22:57:24;;;;;;;0.30;0.30;;;2.60;90.30;;;;;;10587973;27;20216;-82
2024/01/15 23:02:26;;;;;;;0.30;0.30;;;2.50;91.10;;;;;;10562279;28;20216;-82
2024/01/15 23:07:30;;;;;;;0.30;0.30;;;2.50;90.70;;;;;;10569692;28;20241;-81
2024/01/15 23:12:33;;;;;;;0.30;0.30;;;2.60;90.60;;;;;;10584123;28;20235;-80
2024/01/15 23:17:36;;;;;;;0.40;0.40;;;2.50;90.60;;;;;;10580815;28;20226;-81
2024/01/15 23:22:40;;;;;;;0.40;0.40;;;2.50;90.40;;;;;;10579131;28;20230;-81
2024/01/15 23:27:43;;;;;;;0.30;0.30;;;2.40;90.70;;;;;;10577282;28;20203;-83
2024/01/15 23:32:47;;;;;;;0.30;0.30;;;2.30;90.60;;;;;;10565779;28;21007;-79
2024/01/15 23:37:50;;;;;;;0.30;0.30;;;2.30;91.10;;;;;;10563160;28;20223;-81
2024/01/15 23:42:53;;;;;;;0.30;0.30;;;2.40;91.00;;;;;;10564768;28;20224;-78
2024/01/15 23:47:55;;;;;;;0.30;0.30;;;2.40;90.90;;;;;;10562233;28;20196;-79
2024/01/15 23:52:59;;;;;;;0.40;0.40;;;2.50;90.50;;;;;;10578319;28;20215;-80
2024/01/15 23:58:01;;;;;;;0.40;0.40;;;2.50;90.60;;;;;;10564191;28;20211;-82
